createdAt,value
2022-11-27T00:03:03.449Z,29.90
2022-11-27T00:08:05.956Z,32.00
2022-11-27T00:13:08.540Z,55.83
2022-11-27T00:18:11.240Z,51.03
2022-11-27T00:23:13.702Z,41.13
2022-11-27T00:28:16.094Z,49.27
2022-11-27T00:33:18.454Z,46.17
2022-11-27T00:38:21.106Z,48.97
2022-11-27T00:43:23.518Z,44.47
2022-11-27T00:48:25.957Z,49.03
2022-11-27T00:53:28.678Z,48.90
2022-11-27T00:58:31.061Z,52.30
2022-11-27T01:03:35.415Z,47.63
2022-11-27T01:08:37.762Z,47.20
2022-11-27T01:13:40.352Z,48.30
2022-11-27T01:18:45.156Z,42.13
2022-11-27T01:23:49.092Z,25.03
2022-11-27T01:28:56.019Z,25.23
2022-11-27T01:34:02.581Z,33.77
2022-11-27T01:39:05.404Z,23.63
2022-11-27T01:44:26.077Z,30.17
2022-11-27T01:49:53.606Z,34.33
2022-11-27T01:55:01.151Z,32.73
2022-11-27T02:00:08.318Z,30.30
2022-11-27T02:05:18.904Z,32.47
2022-11-27T02:10:23.028Z,32.40
2022-11-27T02:15:34.032Z,31.03
2022-11-27T02:21:13.059Z,28.43
2022-11-27T02:26:43.808Z,28.53
2022-11-27T02:32:15.726Z,23.10
2022-11-27T02:37:48.246Z,26.20
2022-11-27T02:42:59.412Z,20.23
2022-11-27T02:48:03.465Z,25.80
2022-11-27T02:53:12.805Z,27.83
2022-11-27T02:58:20.879Z,26.53
2022-11-27T03:03:29.886Z,28.13
2022-11-27T03:09:10.747Z,28.67
2022-11-27T03:14:15.116Z,27.53
2022-11-27T03:19:45.355Z,30.63
2022-11-27T03:24:49.992Z,30.33
2022-11-27T03:29:56.903Z,29.83
2022-11-27T03:34:59.701Z,30.97
2022-11-27T03:40:03.710Z,30.70
2022-11-27T03:45:35.097Z,29.67
2022-11-27T03:51:11.512Z,32.43
2022-11-27T03:56:17.451Z,28.77
2022-11-27T04:01:22.900Z,30.50
2022-11-27T04:06:25.378Z,28.20
2022-11-27T04:11:27.710Z,27.83
2022-11-27T04:16:30.511Z,26.10
2022-11-27T04:21:33.013Z,26.97
2022-11-27T04:26:35.329Z,26.00
2022-11-27T04:31:37.875Z,25.90
2022-11-27T04:36:40.425Z,26.37
2022-11-27T04:41:42.794Z,25.43
2022-11-27T04:46:45.343Z,26.73
2022-11-27T04:51:47.879Z,26.37
2022-11-27T04:56:50.295Z,21.83
2022-11-27T05:01:52.794Z,26.47
2022-11-27T05:06:55.174Z,27.37
2022-11-27T05:11:57.571Z,17.40
2022-11-27T05:17:00.333Z,25.43
2022-11-27T05:22:02.686Z,25.13
2022-11-27T05:27:05.038Z,25.53
2022-11-27T05:32:07.480Z,24.70
2022-11-27T05:37:11.243Z,24.50
2022-11-27T05:42:15.248Z,23.93
2022-11-27T05:47:17.701Z,24.33
2022-11-27T05:52:20.109Z,23.07
2022-11-27T05:57:22.929Z,25.50
2022-11-27T06:02:29.390Z,26.50
2022-11-27T06:07:32.589Z,31.13
2022-11-27T06:12:35.294Z,33.03
2022-11-27T06:17:37.710Z,25.80
2022-11-27T06:22:40.191Z,27.63
2022-11-27T06:27:42.552Z,24.70
2022-11-27T06:32:45.682Z,28.13
2022-11-27T06:37:48.249Z,26.10
2022-11-27T06:42:50.670Z,27.63
2022-11-27T06:47:53.072Z,26.27
2022-11-27T06:52:55.549Z,27.73
2022-11-27T06:57:58.509Z,25.33
2022-11-27T07:03:00.898Z,26.90
2022-11-27T07:08:03.372Z,28.07
2022-11-27T07:13:05.805Z,28.20
2022-11-27T07:18:08.289Z,28.57
2022-11-27T07:23:10.773Z,28.40
2022-11-27T07:28:18.564Z,29.13
2022-11-27T07:33:21.857Z,25.43
2022-11-27T07:38:24.300Z,26.87
2022-11-27T07:43:26.887Z,25.43
2022-11-27T07:48:29.259Z,26.00
2022-11-27T07:53:31.650Z,24.67
2022-11-27T07:58:34.755Z,22.07
2022-11-27T08:03:37.347Z,27.13
2022-11-27T08:08:39.713Z,26.47
2022-11-27T08:13:42.138Z,27.13
2022-11-27T08:18:44.768Z,23.27
2022-11-27T08:23:47.154Z,41.27
2022-11-27T08:28:52.944Z,25.30
2022-11-27T08:33:55.528Z,48.80
2022-11-27T08:38:58.005Z,30.83
2022-11-27T08:44:00.384Z,36.93
2022-11-27T08:49:02.829Z,27.47
2022-11-27T08:54:05.332Z,31.97
2022-11-27T08:59:07.721Z,36.70
2022-11-27T09:04:10.240Z,32.77
2022-11-27T09:09:12.805Z,36.93
2022-11-27T09:14:15.234Z,32.23
2022-11-27T09:19:18.213Z,33.13
2022-11-27T09:24:20.650Z,32.77
2022-11-27T09:29:23.073Z,35.57
2022-11-27T09:34:25.472Z,21.33
2022-11-27T09:39:33.271Z,25.93
2022-11-27T09:44:49.829Z,19.23
2022-11-27T09:49:57.609Z,24.63
2022-11-27T09:55:13.359Z,19.03
2022-11-27T10:00:18.665Z,15.73
2022-11-27T10:05:31.219Z,22.77
2022-11-27T10:10:33.511Z,15.90
2022-11-27T10:16:01.408Z,36.57
2022-11-27T10:21:27.519Z,23.53
2022-11-27T10:26:39.011Z,38.27
2022-11-27T10:31:46.326Z,19.17
2022-11-27T10:36:53.521Z,15.27
2022-11-27T10:42:03.630Z,24.67
2022-11-27T10:47:10.123Z,21.20
2022-11-27T10:52:19.279Z,24.30
2022-11-27T10:57:31.745Z,16.67
2022-11-27T11:02:38.586Z,16.20
2022-11-27T11:07:41.246Z,13.73
2022-11-27T11:12:44.110Z,15.07
2022-11-27T11:17:46.577Z,12.77
2022-11-27T11:22:49.624Z,13.00
2022-11-27T11:27:53.039Z,13.33
2022-11-27T11:33:03.897Z,10.17
2022-11-27T11:38:17.017Z,12.33
2022-11-27T11:43:28.356Z,13.23
2022-11-27T11:48:30.751Z,11.43
2022-11-27T11:53:45.435Z,10.47
2022-11-27T11:58:54.169Z,13.67
2022-11-27T12:04:13.447Z,12.13
2022-11-27T12:09:42.591Z,13.03
2022-11-27T12:15:02.872Z,12.03
2022-11-27T12:20:33.930Z,10.53
2022-11-27T12:25:57.849Z,8.67
2022-11-27T12:31:03.328Z,9.63
2022-11-27T12:36:49.040Z,13.00
2022-11-27T12:42:28.875Z,11.90
2022-11-27T12:47:42.829Z,10.63
2022-11-27T12:52:54.226Z,12.13
2022-11-27T12:58:05.747Z,12.27
2022-11-27T13:03:30.709Z,12.33
2022-11-27T13:08:52.543Z,12.67
2022-11-27T13:14:09.312Z,10.33
2022-11-27T13:19:32.924Z,13.47
2022-11-27T13:24:36.318Z,16.97
2022-11-27T13:29:53.881Z,13.10
2022-11-27T13:34:59.418Z,13.37
2022-11-27T13:40:17.577Z,11.67
2022-11-27T13:45:33.935Z,14.37
2022-11-27T13:50:44.542Z,22.83
2022-11-27T13:55:56.704Z,13.47
2022-11-27T14:01:00.168Z,14.97
2022-11-27T14:06:02.739Z,14.23
2022-11-27T14:11:08.799Z,16.83
2022-11-27T14:16:26.601Z,12.43
2022-11-27T14:21:44.083Z,14.77
2022-11-27T14:26:46.490Z,15.80
2022-11-27T14:32:00.006Z,16.10
2022-11-27T14:37:02.498Z,20.73
2022-11-27T14:42:07.930Z,17.63
2022-11-27T14:47:22.675Z,22.20
2022-11-27T14:52:26.192Z,33.40
2022-11-27T14:57:30.420Z,30.90
2022-11-27T15:02:33.043Z,50.60
2022-11-27T15:07:45.445Z,37.67
2022-11-27T15:12:51.007Z,22.67
2022-11-27T15:18:05.915Z,22.53
2022-11-27T15:23:26.004Z,22.97
2022-11-27T15:28:37.698Z,30.73
2022-11-27T15:33:40.043Z,33.43
2022-11-27T15:38:43.509Z,48.60
2022-11-27T15:43:46.055Z,43.43
2022-11-27T15:48:48.372Z,35.30
2022-11-27T15:53:51.070Z,34.37
2022-11-27T15:58:53.477Z,27.77
2022-11-27T16:03:55.999Z,28.77
2022-11-27T16:09:01.591Z,31.30
2022-11-27T16:14:04.365Z,21.77
2022-11-27T16:19:06.974Z,22.20
2022-11-27T16:24:12.890Z,37.03
2022-11-27T16:29:15.546Z,27.40
2022-11-27T16:34:18.057Z,26.40
2022-11-27T16:39:20.683Z,21.23
2022-11-27T16:44:23.132Z,22.20
2022-11-27T16:49:25.748Z,22.63
2022-11-27T16:54:28.522Z,34.93
2022-11-27T16:59:31.612Z,32.83
2022-11-27T17:04:34.080Z,29.47
2022-11-27T17:09:37.234Z,29.27
2022-11-27T17:14:39.813Z,28.90
2022-11-27T17:19:43.593Z,25.27
2022-11-27T17:24:46.148Z,32.57
2022-11-27T17:29:51.626Z,27.80
2022-11-27T17:34:54.146Z,23.37
2022-11-27T17:39:56.855Z,34.13
2022-11-27T17:44:59.235Z,31.77
2022-11-27T17:50:01.650Z,29.20
2022-11-27T17:55:04.559Z,28.17
2022-11-27T18:00:08.715Z,28.20
2022-11-27T18:05:16.403Z,30.77
2022-11-27T18:10:19.523Z,31.67
2022-11-27T18:15:21.917Z,33.73
2022-11-27T18:20:24.448Z,31.63
2022-11-27T18:25:27.167Z,34.40
2022-11-27T18:30:29.744Z,31.53
2022-11-27T18:35:32.494Z,34.33
2022-11-27T18:40:39.890Z,34.07
2022-11-27T18:45:42.626Z,35.70
2022-11-27T18:50:45.844Z,44.20
2022-11-27T18:55:52.618Z,38.27
2022-11-27T19:00:57.576Z,36.03
2022-11-27T19:06:01.857Z,35.27
2022-11-27T19:11:07.966Z,34.57
2022-11-27T19:16:18.823Z,35.60
2022-11-27T19:21:24.199Z,31.53
2022-11-27T19:26:34.432Z,24.17
2022-11-27T19:31:39.809Z,21.13
2022-11-27T19:36:42.972Z,33.97
2022-11-27T19:41:45.529Z,34.97
2022-11-27T19:46:49.812Z,42.33
2022-11-27T19:51:53.169Z,35.23
2022-11-27T19:56:55.708Z,35.50
2022-11-27T20:01:58.802Z,26.60
2022-11-27T20:07:04.857Z,29.37
2022-11-27T20:12:07.483Z,26.37
2022-11-27T20:17:10.272Z,33.43
2022-11-27T20:22:13.283Z,31.80
2022-11-27T20:27:16.085Z,31.60
2022-11-27T20:32:18.387Z,37.33
2022-11-27T20:37:20.965Z,35.03
2022-11-27T20:42:24.499Z,21.90
2022-11-27T20:47:28.523Z,33.33
2022-11-27T20:52:31.153Z,34.20
2022-11-27T20:57:35.050Z,29.47
2022-11-27T21:02:41.478Z,35.00
2022-11-27T21:07:43.966Z,27.87
2022-11-27T21:12:47.104Z,30.93
2022-11-27T21:17:49.923Z,33.97
2022-11-27T21:22:53.629Z,31.60
2022-11-27T21:27:58.123Z,28.37
2022-11-27T21:33:01.063Z,33.40
2022-11-27T21:38:03.589Z,19.23
2022-11-27T21:43:06.566Z,29.70
2022-11-27T21:48:14.070Z,27.87
2022-11-27T21:53:16.922Z,30.37
2022-11-27T21:58:19.361Z,32.83
2022-11-27T22:03:21.799Z,19.63
2022-11-27T22:08:24.233Z,19.93
2022-11-27T22:13:28.916Z,30.67
2022-11-27T22:18:31.371Z,32.70
2022-11-27T22:23:34.305Z,28.07
2022-11-27T22:28:37.031Z,34.40
2022-11-27T22:33:41.272Z,29.57
2022-11-27T22:38:46.146Z,27.50
2022-11-27T22:43:49.147Z,26.80
2022-11-27T22:48:56.344Z,28.40
2022-11-27T22:53:59.067Z,25.07
2022-11-27T22:59:31.220Z,28.43
2022-11-27T23:04:26.766Z,27.53
2022-11-27T23:09:29.658Z,20.77
2022-11-27T23:14:32.047Z,23.90
2022-11-27T23:19:34.640Z,26.13
2022-11-27T23:24:37.076Z,30.73
2022-11-27T23:29:39.638Z,32.03
2022-11-27T23:34:42.282Z,20.60
2022-11-27T23:39:44.907Z,19.37
2022-11-27T23:44:47.354Z,25.80
2022-11-27T23:49:49.793Z,29.27
2022-11-27T23:54:52.316Z,21.37
2022-11-27T23:59:55.081Z,30.60
